createdAt,value
2023-02-19T00:01:17.960Z,52
2023-02-19T00:03:18.247Z,52
2023-02-19T00:05:18.176Z,50
2023-02-19T00:07:18.241Z,50
2023-02-19T00:11:18.615Z,51
2023-02-19T00:13:18.577Z,48
2023-02-19T00:15:18.662Z,50
2023-02-19T00:17:18.759Z,45
2023-02-19T00:19:18.870Z,46
2023-02-19T00:21:18.973Z,51
2023-02-19T00:23:19.080Z,49
2023-02-19T00:25:27.466Z,54
2023-02-19T00:27:21.813Z,53
2023-02-19T00:29:19.493Z,55
2023-02-19T00:31:19.527Z,63
2023-02-19T00:33:23.679Z,61
2023-02-19T00:35:24.068Z,66
2023-02-19T00:37:29.706Z,63
2023-02-19T00:39:20.520Z,65
2023-02-19T00:41:22.695Z,59
2023-02-19T00:43:22.518Z,51
2023-02-19T00:45:23.459Z,54
2023-02-19T00:47:23.157Z,47
2023-02-19T00:49:25.146Z,48
2023-02-19T00:51:22.298Z,43
2023-02-19T00:53:23.878Z,45
2023-02-19T00:55:26.088Z,43
2023-02-19T00:59:22.434Z,46
2023-02-19T01:01:30.815Z,38
2023-02-19T01:03:21.013Z,40
2023-02-19T01:05:22.306Z,35
2023-02-19T01:07:22.979Z,53
2023-02-19T01:09:25.409Z,45
2023-02-19T01:11:26.203Z,55
2023-02-19T01:15:31.072Z,49
2023-02-19T01:17:27.407Z,52
2023-02-19T01:19:26.597Z,44
2023-02-19T01:21:26.701Z,37
2023-02-19T01:23:22.135Z,76
2023-02-19T01:27:28.981Z,32
2023-02-19T01:29:27.918Z,35
2023-02-19T01:35:24.153Z,31
2023-02-19T01:37:28.225Z,30
2023-02-19T01:39:23.960Z,29
2023-02-19T01:41:27.048Z,30
2023-02-19T01:43:28.848Z,28
2023-02-19T01:45:27.741Z,26
2023-02-19T01:49:24.203Z,31
2023-02-19T01:51:24.514Z,28
2023-02-19T01:53:23.368Z,31
2023-02-19T01:57:23.552Z,36
2023-02-19T01:59:23.958Z,39
2023-02-19T02:05:25.103Z,32
2023-02-19T02:07:28.747Z,34
2023-02-19T02:09:28.830Z,30
2023-02-19T02:13:27.504Z,29
2023-02-19T02:17:28.097Z,30
2023-02-19T02:19:26.591Z,33
2023-02-19T02:27:27.362Z,37
2023-02-19T02:31:29.929Z,44
2023-02-19T02:33:29.782Z,40
2023-02-19T02:37:30.535Z,40
2023-02-19T02:39:28.631Z,44
2023-02-19T02:41:28.010Z,40
2023-02-19T02:43:25.607Z,37
2023-02-19T02:47:29.153Z,41
2023-02-19T02:49:26.633Z,39
2023-02-19T02:51:29.743Z,43
2023-02-19T02:53:31.474Z,48
2023-02-19T02:55:28.510Z,53
2023-02-19T02:57:26.984Z,61
2023-02-19T02:59:28.632Z,51
2023-02-19T03:01:28.747Z,40
2023-02-19T03:05:29.354Z,28
2023-02-19T03:07:26.735Z,23
2023-02-19T03:09:29.136Z,24
2023-02-19T03:13:30.524Z,22
2023-02-19T03:15:28.086Z,20
2023-02-19T03:17:28.274Z,23
2023-02-19T03:19:30.767Z,24
2023-02-19T03:21:35.812Z,22
2023-02-19T03:23:29.346Z,34
2023-02-19T03:25:28.591Z,30
2023-02-19T03:27:28.816Z,24
2023-02-19T03:29:28.353Z,29
2023-02-19T03:31:27.762Z,20
2023-02-19T03:33:27.503Z,20
2023-02-19T03:35:34.237Z,24
2023-02-19T03:38:01.730Z,23
2023-02-19T03:40:00.789Z,22
2023-02-19T03:41:58.558Z,23
2023-02-19T03:43:57.892Z,25
2023-02-19T03:46:02.101Z,25
2023-02-19T03:47:58.313Z,24
2023-02-19T03:51:58.433Z,20
2023-02-19T03:53:58.503Z,21
2023-02-19T03:55:58.586Z,20
2023-02-19T03:59:59.038Z,24
2023-02-19T04:01:58.907Z,24
2023-02-19T04:03:59.023Z,23
2023-02-19T04:05:59.101Z,22
2023-02-19T04:07:59.244Z,23
2023-02-19T04:09:59.466Z,23
2023-02-19T04:11:59.436Z,19
2023-02-19T04:13:59.578Z,20
2023-02-19T04:15:59.699Z,15
2023-02-19T04:18:00.051Z,16
2023-02-19T04:19:59.894Z,16
2023-02-19T04:24:00.107Z,16
2023-02-19T04:26:00.193Z,17
2023-02-19T04:28:00.283Z,18
2023-02-19T04:30:02.563Z,22
2023-02-19T04:32:10.485Z,23
2023-02-19T04:34:00.619Z,20
2023-02-19T04:36:02.999Z,22
2023-02-19T04:38:02.500Z,17
2023-02-19T04:40:00.944Z,17
2023-02-19T04:42:01.067Z,18
2023-02-19T04:44:01.183Z,23
2023-02-19T04:46:06.263Z,17
2023-02-19T04:52:01.751Z,19
2023-02-19T04:54:03.301Z,20
2023-02-19T04:58:06.630Z,21
2023-02-19T05:00:02.040Z,23
2023-02-19T05:02:08.757Z,25
2023-02-19T05:04:02.318Z,25
2023-02-19T05:06:02.362Z,22
2023-02-19T05:08:02.482Z,32
2023-02-19T05:10:02.622Z,34
2023-02-19T05:12:04.511Z,41
2023-02-19T05:14:02.835Z,41
2023-02-19T05:16:03.060Z,41
2023-02-19T05:18:03.715Z,47
2023-02-19T05:20:03.152Z,43
2023-02-19T05:22:03.283Z,44
2023-02-19T05:24:08.448Z,41
2023-02-19T05:28:08.825Z,47
2023-02-19T05:30:03.754Z,49
2023-02-19T05:34:03.922Z,50
2023-02-19T05:36:04.048Z,51
2023-02-19T05:38:04.156Z,46
2023-02-19T05:40:04.918Z,45
2023-02-19T05:42:09.033Z,39
2023-02-19T05:44:04.412Z,37
2023-02-19T05:46:04.539Z,44
2023-02-19T05:48:09.402Z,40
2023-02-19T05:50:04.775Z,40
2023-02-19T05:52:07.014Z,36
2023-02-19T05:54:04.989Z,36
2023-02-19T05:56:05.083Z,35
2023-02-19T05:58:05.190Z,34
2023-02-19T06:00:05.332Z,31
2023-02-19T06:02:05.408Z,29
2023-02-19T06:04:05.593Z,29
2023-02-19T06:06:07.040Z,33
2023-02-19T06:08:08.625Z,33
2023-02-19T06:10:14.298Z,41
2023-02-19T06:16:09.020Z,49
2023-02-19T06:18:11.266Z,43
2023-02-19T06:20:11.407Z,46
2023-02-19T06:22:06.425Z,48
2023-02-19T06:24:11.734Z,45
2023-02-19T06:26:07.050Z,45
2023-02-19T06:28:06.768Z,44
2023-02-19T06:30:06.946Z,47
2023-02-19T06:32:07.108Z,45
2023-02-19T06:34:07.102Z,46
2023-02-19T06:36:08.853Z,51
2023-02-19T06:38:12.069Z,49
2023-02-19T06:40:07.400Z,52
2023-02-19T06:42:07.952Z,57
2023-02-19T06:44:07.640Z,53
2023-02-19T06:46:07.824Z,52
2023-02-19T06:48:07.923Z,63
2023-02-19T06:50:07.965Z,65
2023-02-19T06:52:08.190Z,62
2023-02-19T06:54:08.184Z,63
2023-02-19T06:56:08.285Z,57
2023-02-19T06:58:10.646Z,54
2023-02-19T07:00:08.530Z,50
2023-02-19T07:02:08.603Z,49
2023-02-19T07:04:08.772Z,43
2023-02-19T07:06:08.857Z,45
2023-02-19T07:08:09.011Z,44
2023-02-19T07:10:09.046Z,43
2023-02-19T07:12:09.153Z,42
2023-02-19T07:14:09.257Z,41
2023-02-19T07:16:09.414Z,37
2023-02-19T07:18:09.470Z,42
2023-02-19T07:20:09.560Z,39
2023-02-19T07:22:09.775Z,42
2023-02-19T07:24:09.808Z,46
2023-02-19T07:26:10.047Z,45
2023-02-19T07:28:10.023Z,47
2023-02-19T07:30:10.185Z,45
2023-02-19T07:32:16.692Z,44
2023-02-19T07:34:10.600Z,40
2023-02-19T07:36:18.776Z,42
2023-02-19T07:38:12.538Z,39
2023-02-19T07:40:10.835Z,41
2023-02-19T07:42:14.750Z,36
2023-02-19T07:44:14.071Z,36
2023-02-19T07:46:15.173Z,52
2023-02-19T07:48:12.245Z,69
2023-02-19T07:50:14.047Z,50
2023-02-19T07:52:11.321Z,46
2023-02-19T07:54:11.402Z,43
2023-02-19T07:56:11.512Z,46
2023-02-19T07:58:11.621Z,49
2023-02-19T08:00:11.736Z,47
2023-02-19T08:02:11.826Z,47
2023-02-19T08:04:11.989Z,44
2023-02-19T08:06:12.090Z,43
2023-02-19T08:08:12.163Z,44
2023-02-19T08:10:22.259Z,47
2023-02-19T08:12:12.355Z,50
2023-02-19T08:14:12.485Z,51
2023-02-19T08:18:12.867Z,52
2023-02-19T08:20:12.773Z,51
2023-02-19T08:22:13.857Z,59
2023-02-19T08:24:12.969Z,65
2023-02-19T08:26:13.137Z,68
2023-02-19T08:28:13.175Z,91
2023-02-19T08:30:13.362Z,150
2023-02-19T08:32:13.459Z,75
2023-02-19T08:34:13.456Z,78
2023-02-19T08:36:13.560Z,85
2023-02-19T08:38:15.220Z,80
2023-02-19T08:40:13.744Z,73
2023-02-19T08:42:13.997Z,74
2023-02-19T08:44:14.008Z,72
2023-02-19T08:46:14.127Z,68
2023-02-19T08:48:14.152Z,72
2023-02-19T08:50:14.240Z,57
2023-02-19T08:52:14.458Z,51
2023-02-19T08:54:14.513Z,53
2023-02-19T08:56:17.767Z,47
2023-02-19T08:58:17.164Z,50
2023-02-19T09:00:17.590Z,64
2023-02-19T09:02:15.192Z,120
2023-02-19T09:04:17.134Z,143
2023-02-19T09:08:18.442Z,66
2023-02-19T09:10:15.918Z,55
2023-02-19T09:12:20.327Z,55
2023-02-19T09:14:16.665Z,49
2023-02-19T09:18:20.832Z,52
2023-02-19T09:20:16.079Z,55
2023-02-19T09:22:25.825Z,39
2023-02-19T09:24:19.788Z,53
2023-02-19T09:28:21.316Z,269
2023-02-19T09:30:26.252Z,187
2023-02-19T09:32:19.332Z,178
2023-02-19T09:36:21.554Z,89
2023-02-19T09:38:20.495Z,234
2023-02-19T09:44:17.104Z,94
2023-02-19T09:46:21.388Z,60
2023-02-19T09:48:17.045Z,54
2023-02-19T09:50:17.796Z,73
2023-02-19T09:52:17.244Z,41
2023-02-19T09:54:17.340Z,64
2023-02-19T09:56:17.439Z,47
2023-02-19T09:58:17.641Z,79
2023-02-19T10:00:17.620Z,129
2023-02-19T10:02:18.705Z,113
2023-02-19T10:04:17.829Z,85
2023-02-19T10:06:17.905Z,87
2023-02-19T10:08:18.033Z,53
2023-02-19T10:10:18.068Z,214
2023-02-19T10:12:18.335Z,104
2023-02-19T10:16:18.458Z,68
2023-02-19T10:18:18.384Z,45
2023-02-19T10:20:18.634Z,54
2023-02-19T10:22:18.612Z,54
2023-02-19T10:24:18.703Z,98
2023-02-19T10:26:18.757Z,71
2023-02-19T10:28:18.875Z,101
2023-02-19T10:30:19.083Z,61
2023-02-19T10:32:19.116Z,45
2023-02-19T10:34:19.206Z,118
2023-02-19T10:36:19.243Z,74
2023-02-19T10:38:19.312Z,40
2023-02-19T10:40:19.372Z,44
2023-02-19T10:42:24.432Z,31
2023-02-19T10:44:19.539Z,43
2023-02-19T10:46:24.657Z,30
2023-02-19T10:48:22.380Z,32
2023-02-19T10:50:23.674Z,31
2023-02-19T10:52:21.296Z,28
2023-02-19T10:54:27.056Z,31
2023-02-19T10:56:28.412Z,36
2023-02-19T10:58:20.412Z,28
2023-02-19T11:00:25.163Z,25
2023-02-19T11:02:25.275Z,25
2023-02-19T11:04:22.142Z,23
2023-02-19T11:06:50.631Z,24
2023-02-19T11:08:55.491Z,25
2023-02-19T11:10:52.305Z,24
2023-02-19T11:12:52.010Z,37
2023-02-19T11:16:57.849Z,22
2023-02-19T11:18:51.745Z,18
2023-02-19T11:20:56.217Z,15
2023-02-19T11:22:56.314Z,20
2023-02-19T11:24:56.628Z,20
2023-02-19T11:27:00.806Z,18
2023-02-19T11:28:51.720Z,20
2023-02-19T11:32:57.904Z,19
2023-02-19T11:34:54.931Z,21
2023-02-19T11:36:52.230Z,23
2023-02-19T11:38:52.200Z,17
2023-02-19T11:40:52.310Z,8
2023-02-19T11:44:52.533Z,11
2023-02-19T11:46:52.696Z,13
2023-02-19T11:48:54.984Z,12
2023-02-19T11:50:52.844Z,15
2023-02-19T11:52:55.756Z,12
2023-02-19T11:54:52.990Z,12
2023-02-19T11:56:53.080Z,8
2023-02-19T11:59:02.136Z,8
2023-02-19T12:00:53.414Z,10
2023-02-19T12:02:53.518Z,9
2023-02-19T12:04:53.507Z,7
2023-02-19T12:06:53.559Z,9
2023-02-19T12:08:53.654Z,13
2023-02-19T12:10:53.928Z,12
2023-02-19T12:12:53.840Z,9
2023-02-19T12:14:54.067Z,8
2023-02-19T12:16:54.501Z,14
2023-02-19T12:18:54.140Z,12
2023-02-19T12:20:54.205Z,12
2023-02-19T12:22:56.401Z,11
2023-02-19T12:24:54.560Z,11
2023-02-19T12:26:54.834Z,12
2023-02-19T12:28:54.599Z,10
2023-02-19T12:32:54.893Z,11
2023-02-19T12:34:54.900Z,10
2023-02-19T12:36:55.035Z,9
2023-02-19T12:38:55.142Z,12
2023-02-19T12:40:55.143Z,12
2023-02-19T12:42:56.743Z,22
2023-02-19T12:44:55.444Z,15
2023-02-19T12:46:55.408Z,50
2023-02-19T12:48:55.458Z,26
2023-02-19T12:50:55.706Z,19
2023-02-19T12:52:55.867Z,15
2023-02-19T12:54:56.047Z,12
2023-02-19T12:56:55.960Z,12
2023-02-19T12:58:58.730Z,10
2023-02-19T13:00:56.049Z,11
2023-02-19T13:05:01.379Z,9
2023-02-19T13:07:01.268Z,10
2023-02-19T13:12:56.821Z,8
2023-02-19T13:14:56.628Z,11
2023-02-19T13:16:56.986Z,10
2023-02-19T13:18:56.820Z,70
2023-02-19T13:21:01.313Z,42
2023-02-19T13:23:05.240Z,28
2023-02-19T13:24:59.059Z,22
2023-02-19T13:27:00.671Z,31
2023-02-19T13:28:57.786Z,20
2023-02-19T13:36:59.335Z,43
2023-02-19T13:39:01.212Z,54
2023-02-19T13:43:37.962Z,36
2023-02-19T13:47:36.912Z,31
2023-02-19T13:53:34.764Z,20
2023-02-19T13:57:29.456Z,15
2023-02-19T13:59:29.882Z,17
2023-02-19T14:01:33.221Z,22
2023-02-19T14:03:35.987Z,35
2023-02-19T14:05:31.818Z,56
2023-02-19T14:07:39.010Z,37
2023-02-19T14:09:34.111Z,72
2023-02-19T14:13:31.405Z,216
2023-02-19T14:15:34.479Z,156
2023-02-19T14:17:32.724Z,30
2023-02-19T14:19:29.796Z,23
2023-02-19T14:21:32.737Z,22
2023-02-19T14:23:31.314Z,22
2023-02-19T14:27:35.101Z,21
2023-02-19T14:31:34.509Z,27
2023-02-19T14:33:30.486Z,22
2023-02-19T14:35:36.072Z,24
2023-02-19T14:37:30.631Z,28
2023-02-19T14:39:33.537Z,37
2023-02-19T14:41:32.391Z,47
2023-02-19T14:43:31.772Z,38
2023-02-19T14:45:31.066Z,36
2023-02-19T14:47:35.969Z,37
2023-02-19T14:49:31.078Z,34
2023-02-19T14:51:31.348Z,26
2023-02-19T14:53:37.147Z,30
2023-02-19T14:55:31.424Z,30
2023-02-19T14:57:34.744Z,31
2023-02-19T14:59:39.260Z,36
2023-02-19T15:01:31.748Z,46
2023-02-19T15:03:32.010Z,42
2023-02-19T15:05:40.334Z,40
2023-02-19T15:07:32.115Z,45
2023-02-19T15:09:32.106Z,49
2023-02-19T15:11:36.092Z,45
2023-02-19T15:17:36.714Z,50
2023-02-19T15:19:39.188Z,31
2023-02-19T15:21:38.618Z,25
2023-02-19T15:23:33.881Z,20
2023-02-19T15:25:36.953Z,17
2023-02-19T15:27:36.071Z,17
2023-02-19T15:29:33.224Z,18
2023-02-19T15:31:36.961Z,17
2023-02-19T15:33:35.443Z,16
2023-02-19T15:37:37.558Z,15
2023-02-19T15:39:38.470Z,16
2023-02-19T15:41:34.294Z,16
2023-02-19T15:43:37.700Z,15
2023-02-19T15:45:33.861Z,15
2023-02-19T15:47:33.829Z,22
2023-02-19T15:49:34.072Z,29
2023-02-19T15:53:36.645Z,30
2023-02-19T15:55:43.103Z,33
2023-02-19T15:57:37.621Z,25
2023-02-19T15:59:34.517Z,26
2023-02-19T16:01:39.502Z,21
2023-02-19T16:03:34.697Z,17
2023-02-19T16:05:35.180Z,20
2023-02-19T16:07:34.678Z,11
2023-02-19T16:09:39.416Z,14
2023-02-19T16:11:35.632Z,12
2023-02-19T16:13:35.090Z,12
2023-02-19T16:15:34.994Z,13
2023-02-19T16:18:05.125Z,13
2023-02-19T16:20:05.218Z,14
2023-02-19T16:22:05.327Z,15
2023-02-19T16:24:05.471Z,14
2023-02-19T16:26:05.581Z,16
2023-02-19T16:28:05.710Z,19
2023-02-19T16:30:05.919Z,19
2023-02-19T16:32:06.047Z,25
2023-02-19T16:34:06.083Z,29
2023-02-19T16:36:11.111Z,42
2023-02-19T16:38:08.823Z,83
2023-02-19T16:40:11.109Z,80
2023-02-19T16:42:16.453Z,77
2023-02-19T16:44:06.564Z,59
2023-02-19T16:46:07.664Z,55
2023-02-19T16:48:06.767Z,64
2023-02-19T16:50:06.861Z,38
2023-02-19T16:52:06.944Z,31
2023-02-19T16:56:07.323Z,42
2023-02-19T16:58:07.252Z,91
2023-02-19T17:00:07.384Z,78
2023-02-19T17:02:07.504Z,55
2023-02-19T17:04:07.654Z,45
2023-02-19T17:06:07.673Z,43
2023-02-19T17:08:07.799Z,43
2023-02-19T17:10:17.879Z,40
2023-02-19T17:12:08.002Z,34
2023-02-19T17:14:09.985Z,28
2023-02-19T17:16:12.775Z,24
2023-02-19T17:18:09.574Z,24
2023-02-19T17:20:12.863Z,22
2023-02-19T17:22:09.939Z,20
2023-02-19T17:24:13.660Z,24
2023-02-19T17:26:09.892Z,23
2023-02-19T17:28:08.818Z,20
2023-02-19T17:30:08.936Z,24
2023-02-19T17:32:09.171Z,27
2023-02-19T17:34:09.146Z,23
2023-02-19T17:36:09.194Z,25
2023-02-19T17:38:09.291Z,26
2023-02-19T17:40:09.516Z,22
2023-02-19T17:42:09.601Z,25
2023-02-19T17:44:09.613Z,24
2023-02-19T17:46:18.971Z,21
2023-02-19T17:48:14.989Z,20
2023-02-19T17:50:09.874Z,18
2023-02-19T17:52:13.121Z,14
2023-02-19T17:54:15.502Z,14
2023-02-19T17:56:18.055Z,13
2023-02-19T17:58:17.306Z,15
2023-02-19T18:10:15.925Z,14
2023-02-19T18:12:10.913Z,14
2023-02-19T18:14:11.003Z,16
2023-02-19T18:16:11.127Z,15
2023-02-19T18:18:11.163Z,15
2023-02-19T18:20:11.274Z,20
2023-02-19T18:22:11.423Z,20
2023-02-19T18:24:11.504Z,19
2023-02-19T18:26:11.594Z,21
2023-02-19T18:28:16.658Z,20
2023-02-19T18:30:12.099Z,22
2023-02-19T18:32:11.915Z,19
2023-02-19T18:34:12.036Z,21
2023-02-19T18:36:12.082Z,23
2023-02-19T18:38:12.203Z,23
2023-02-19T18:40:12.272Z,24
2023-02-19T18:42:12.330Z,24
2023-02-19T18:44:12.558Z,22
2023-02-19T18:46:12.723Z,27
2023-02-19T18:48:12.619Z,27
2023-02-19T18:50:15.168Z,25
2023-02-19T18:52:12.857Z,28
2023-02-19T18:54:16.641Z,33
2023-02-19T18:56:12.997Z,34
2023-02-19T19:00:13.244Z,44
2023-02-19T19:02:13.248Z,37
2023-02-19T19:04:13.508Z,32
2023-02-19T19:06:13.442Z,26
2023-02-19T19:08:18.500Z,32
2023-02-19T19:10:14.803Z,32
2023-02-19T19:12:15.656Z,34
2023-02-19T19:14:18.751Z,31
2023-02-19T19:20:16.911Z,34
2023-02-19T19:22:15.510Z,38
2023-02-19T19:24:20.975Z,33
2023-02-19T19:26:19.217Z,31
2023-02-19T19:28:19.903Z,29
2023-02-19T19:36:14.774Z,34
2023-02-19T19:38:14.876Z,27
2023-02-19T19:40:14.885Z,22
2023-02-19T19:42:14.935Z,20
2023-02-19T19:44:45.084Z,22
2023-02-19T19:46:45.192Z,22
2023-02-19T19:48:47.280Z,29
2023-02-19T19:50:45.577Z,27
2023-02-19T19:52:45.533Z,35
2023-02-19T19:54:45.827Z,27
2023-02-19T19:56:45.785Z,31
2023-02-19T19:58:53.293Z,27
2023-02-19T20:00:46.026Z,25
2023-02-19T20:02:52.128Z,22
2023-02-19T20:04:46.350Z,21
2023-02-19T20:06:49.037Z,19
2023-02-19T20:08:46.562Z,20
2023-02-19T20:10:46.709Z,23
2023-02-19T20:12:46.857Z,23
2023-02-19T20:14:47.990Z,25
2023-02-19T20:16:46.915Z,27
2023-02-19T20:18:50.343Z,26
2023-02-19T20:20:48.339Z,25
2023-02-19T20:24:52.877Z,25
2023-02-19T20:26:48.673Z,26
2023-02-19T20:28:48.682Z,25
2023-02-19T20:30:53.251Z,28
2023-02-19T20:32:49.556Z,25
2023-02-19T20:34:47.881Z,24
2023-02-19T20:36:48.024Z,28
2023-02-19T20:38:48.112Z,25
2023-02-19T20:40:48.209Z,26
2023-02-19T20:42:48.591Z,28
2023-02-19T20:44:48.433Z,23
2023-02-19T20:46:52.287Z,21
2023-02-19T20:48:57.088Z,21
2023-02-19T20:50:58.733Z,21
2023-02-19T20:52:58.815Z,20
2023-02-19T20:54:48.971Z,20
2023-02-19T20:56:49.205Z,23
2023-02-19T20:58:49.148Z,26
2023-02-19T21:00:49.430Z,26
2023-02-19T21:02:51.903Z,38
2023-02-19T21:04:49.598Z,34
2023-02-19T21:06:52.118Z,31
2023-02-19T21:08:49.795Z,46
2023-02-19T21:10:49.962Z,45
2023-02-19T21:12:50.122Z,50
2023-02-19T21:14:50.138Z,48
2023-02-19T21:16:50.123Z,46
2023-02-19T21:18:54.534Z,45
2023-02-19T21:20:50.291Z,41
2023-02-19T21:22:50.455Z,35
2023-02-19T21:24:52.617Z,34
2023-02-19T21:26:50.597Z,29
2023-02-19T21:28:50.893Z,29
2023-02-19T21:30:50.817Z,26
2023-02-19T21:32:50.905Z,25
2023-02-19T21:34:50.994Z,24
2023-02-19T21:36:51.105Z,22
2023-02-19T21:38:51.156Z,24
2023-02-19T21:40:53.664Z,24
2023-02-19T21:42:58.923Z,26
2023-02-19T21:46:51.678Z,26
2023-02-19T21:48:51.681Z,27
2023-02-19T21:50:53.723Z,28
2023-02-19T21:52:53.174Z,32
2023-02-19T21:54:51.976Z,33
2023-02-19T21:56:52.484Z,38
2023-02-19T21:58:52.128Z,40
2023-02-19T22:00:52.269Z,39
2023-02-19T22:02:52.403Z,41
2023-02-19T22:04:57.204Z,42
2023-02-19T22:06:52.671Z,38
2023-02-19T22:08:57.422Z,32
2023-02-19T22:10:52.830Z,33
2023-02-19T22:12:54.847Z,33
2023-02-19T22:14:53.029Z,30
2023-02-19T22:16:54.585Z,31
2023-02-19T22:18:54.355Z,30
2023-02-19T22:20:53.142Z,28
2023-02-19T22:23:03.213Z,30
2023-02-19T22:25:00.023Z,29
2023-02-19T22:26:58.721Z,27
2023-02-19T22:28:56.445Z,30
2023-02-19T22:32:54.007Z,39
2023-02-19T22:34:55.254Z,39
2023-02-19T22:36:54.008Z,41
2023-02-19T22:38:54.121Z,36
2023-02-19T22:40:54.247Z,35
2023-02-19T22:42:54.386Z,39
2023-02-19T22:44:54.277Z,46
2023-02-19T22:46:54.373Z,37
2023-02-19T22:48:54.566Z,31
2023-02-19T22:50:54.701Z,28
2023-02-19T22:52:54.677Z,24
2023-02-19T22:54:56.472Z,22
2023-02-19T22:58:59.927Z,22
2023-02-19T23:00:58.496Z,22
2023-02-19T23:03:00.094Z,22
2023-02-19T23:05:05.220Z,24
2023-02-19T23:11:00.473Z,22
2023-02-19T23:16:57.497Z,22
2023-02-19T23:19:05.736Z,23
2023-02-19T23:23:05.999Z,24
2023-02-19T23:25:01.024Z,26
2023-02-19T23:26:59.651Z,25
2023-02-19T23:30:59.929Z,26
2023-02-19T23:32:58.672Z,27
2023-02-19T23:34:59.400Z,28
2023-02-19T23:36:56.550Z,34
2023-02-19T23:38:56.668Z,37
2023-02-19T23:40:59.465Z,36
2023-02-19T23:45:01.906Z,40
2023-02-19T23:47:01.330Z,41
2023-02-19T23:49:00.109Z,42
2023-02-19T23:51:04.297Z,41
2023-02-19T23:52:57.210Z,27
2023-02-19T23:54:57.345Z,29
2023-02-19T23:57:06.293Z,29
2023-02-19T23:58:57.504Z,26
